sensor_id;sensor_type;location;lat;lon;timestamp;P1;durP1;ratioP1;P2;durP2;ratioP2
39930;SDS011;26635;-35.248;149.138;2022-12-29T00:01:23;0.50;;;0.20;;
39930;SDS011;26635;-35.248;149.138;2022-12-29T00:03:54;1.50;;;0.60;;
39930;SDS011;26635;-35.248;149.138;2022-12-29T00:06:24;1.15;;;0.20;;
39930;SDS011;26635;-35.248;149.138;2022-12-29T00:08:55;1.00;;;0.30;;
39930;SDS011;26635;-35.248;149.138;2022-12-29T00:11:26;1.17;;;0.30;;
39930;SDS011;26635;-35.248;149.138;2022-12-29T00:13:57;0.80;;;0.30;;
39930;SDS011;26635;-35.248;149.138;2022-12-29T00:16:51;1.58;;;0.38;;
39930;SDS011;26635;-35.248;149.138;2022-12-29T00:19:22;0.80;;;0.50;;
39930;SDS011;26635;-35.248;149.138;2022-12-29T00:22:12;2.42;;;0.70;;
39930;SDS011;26635;-35.248;149.138;2022-12-29T00:25:01;1.25;;;0.47;;
39930;SDS011;26635;-35.248;149.138;2022-12-29T00:27:50;0.95;;;0.40;;
39930;SDS011;26635;-35.248;149.138;2022-12-29T00:30:40;1.40;;;0.35;;
39930;SDS011;26635;-35.248;149.138;2022-12-29T00:33:30;0.22;;;0.20;;
39930;SDS011;26635;-35.248;149.138;2022-12-29T00:36:21;1.20;;;0.57;;
39930;SDS011;26635;-35.248;149.138;2022-12-29T00:39:02;0.52;;;0.40;;
39930;SDS011;26635;-35.248;149.138;2022-12-29T00:42:05;0.80;;;0.30;;
39930;SDS011;26635;-35.248;149.138;2022-12-29T00:44:55;1.70;;;0.40;;
39930;SDS011;26635;-35.248;149.138;2022-12-29T00:47:26;0.30;;;0.30;;
39930;SDS011;26635;-35.248;149.138;2022-12-29T00:49:56;0.52;;;0.30;;
39930;SDS011;26635;-35.248;149.138;2022-12-29T00:52:27;3.00;;;0.40;;
39930;SDS011;26635;-35.248;149.138;2022-12-29T00:54:58;1.70;;;0.52;;
39930;SDS011;26635;-35.248;149.138;2022-12-29T00:57:29;1.58;;;0.40;;
39930;SDS011;26635;-35.248;149.138;2022-12-29T01:00:00;1.08;;;0.77;;
39930;SDS011;26635;-35.248;149.138;2022-12-29T01:02:30;0.65;;;0.40;;
39930;SDS011;26635;-35.248;149.138;2022-12-29T01:05:01;0.90;;;0.50;;
39930;SDS011;26635;-35.248;149.138;2022-12-29T01:07:32;0.85;;;0.47;;
39930;SDS011;26635;-35.248;149.138;2022-12-29T01:10:03;4.10;;;0.57;;
39930;SDS011;26635;-35.248;149.138;2022-12-29T01:12:41;0.43;;;0.30;;
39930;SDS011;26635;-35.248;149.138;2022-12-29T01:15:14;1.10;;;0.45;;
39930;SDS011;26635;-35.248;149.138;2022-12-29T01:17:44;0.88;;;0.47;;
39930;SDS011;26635;-35.248;149.138;2022-12-29T01:20:15;1.48;;;0.50;;
39930;SDS011;26635;-35.248;149.138;2022-12-29T01:22:46;1.17;;;0.45;;
39930;SDS011;26635;-35.248;149.138;2022-12-29T01:25:16;1.80;;;0.50;;
39930;SDS011;26635;-35.248;149.138;2022-12-29T01:27:47;1.90;;;0.68;;
39930;SDS011;26635;-35.248;149.138;2022-12-29T01:30:17;0.90;;;0.90;;
39930;SDS011;26635;-35.248;149.138;2022-12-29T01:32:48;1.20;;;0.50;;
39930;SDS011;26635;-35.248;149.138;2022-12-29T01:35:18;0.80;;;0.50;;
39930;SDS011;26635;-35.248;149.138;2022-12-29T01:37:48;1.23;;;0.57;;
39930;SDS011;26635;-35.248;149.138;2022-12-29T01:40:19;2.03;;;0.50;;
39930;SDS011;26635;-35.248;149.138;2022-12-29T01:42:49;0.93;;;0.40;;
39930;SDS011;26635;-35.248;149.138;2022-12-29T01:45:20;1.05;;;0.40;;
39930;SDS011;26635;-35.248;149.138;2022-12-29T01:47:55;1.85;;;0.47;;
39930;SDS011;26635;-35.248;149.138;2022-12-29T01:50:38;1.10;;;0.82;;
39930;SDS011;26635;-35.248;149.138;2022-12-29T01:53:17;0.77;;;0.30;;
39930;SDS011;26635;-35.248;149.138;2022-12-29T01:56:00;1.65;;;0.50;;
39930;SDS011;26635;-35.248;149.138;2022-12-29T01:58:36;2.05;;;0.60;;
39930;SDS011;26635;-35.248;149.138;2022-12-29T02:01:11;0.50;;;0.40;;
39930;SDS011;26635;-35.248;149.138;2022-12-29T02:03:44;0.60;;;0.43;;
39930;SDS011;26635;-35.248;149.138;2022-12-29T02:06:20;0.82;;;0.40;;
39930;SDS011;26635;-35.248;149.138;2022-12-29T02:08:57;1.38;;;0.30;;
39930;SDS011;26635;-35.248;149.138;2022-12-29T02:11:31;0.40;;;0.30;;
39930;SDS011;26635;-35.248;149.138;2022-12-29T02:14:11;1.27;;;0.60;;
39930;SDS011;26635;-35.248;149.138;2022-12-29T02:16:52;0.95;;;0.40;;
39930;SDS011;26635;-35.248;149.138;2022-12-29T02:28:17;0.85;;;0.50;;
39930;SDS011;26635;-35.248;149.138;2022-12-29T02:40:13;1.55;;;0.75;;
39930;SDS011;26635;-35.248;149.138;2022-12-29T02:46:02;0.68;;;0.50;;
39930;SDS011;26635;-35.248;149.138;2022-12-29T02:52:25;0.65;;;0.57;;
39930;SDS011;26635;-35.248;149.138;2022-12-29T02:54:37;0.68;;;0.50;;
39930;SDS011;26635;-35.248;149.138;2022-12-29T02:57:15;2.45;;;0.55;;
39930;SDS011;26635;-35.248;149.138;2022-12-29T03:00:07;0.93;;;0.55;;
39930;SDS011;26635;-35.248;149.138;2022-12-29T03:02:51;1.83;;;0.60;;
39930;SDS011;26635;-35.248;149.138;2022-12-29T03:11:32;0.93;;;0.68;;
39930;SDS011;26635;-35.248;149.138;2022-12-29T03:14:31;1.52;;;0.70;;
39930;SDS011;26635;-35.248;149.138;2022-12-29T03:24:43;2.10;;;0.77;;
39930;SDS011;26635;-35.248;149.138;2022-12-29T03:27:51;2.42;;;0.70;;
39930;SDS011;26635;-35.248;149.138;2022-12-29T03:30:20;1.67;;;1.17;;
39930;SDS011;26635;-35.248;149.138;2022-12-29T03:32:52;0.82;;;0.60;;
39930;SDS011;26635;-35.248;149.138;2022-12-29T03:35:28;0.93;;;0.75;;
39930;SDS011;26635;-35.248;149.138;2022-12-29T03:40:42;1.27;;;0.80;;
39930;SDS011;26635;-35.248;149.138;2022-12-29T03:43:18;2.05;;;0.70;;
39930;SDS011;26635;-35.248;149.138;2022-12-29T03:45:49;2.55;;;0.77;;
39930;SDS011;26635;-35.248;149.138;2022-12-29T03:48:21;2.13;;;0.80;;
39930;SDS011;26635;-35.248;149.138;2022-12-29T03:50:53;0.93;;;0.80;;
39930;SDS011;26635;-35.248;149.138;2022-12-29T03:53:23;4.45;;;1.15;;
39930;SDS011;26635;-35.248;149.138;2022-12-29T03:55:53;1.80;;;0.90;;
39930;SDS011;26635;-35.248;149.138;2022-12-29T03:58:24;2.75;;;1.00;;
39930;SDS011;26635;-35.248;149.138;2022-12-29T04:00:54;2.47;;;1.02;;
39930;SDS011;26635;-35.248;149.138;2022-12-29T04:03:25;2.58;;;1.23;;
39930;SDS011;26635;-35.248;149.138;2022-12-29T04:05:56;2.25;;;1.20;;
39930;SDS011;26635;-35.248;149.138;2022-12-29T04:08:26;2.63;;;0.80;;
39930;SDS011;26635;-35.248;149.138;2022-12-29T04:10:57;2.65;;;0.95;;
39930;SDS011;26635;-35.248;149.138;2022-12-29T04:13:27;3.35;;;1.00;;
39930;SDS011;26635;-35.248;149.138;2022-12-29T04:15:58;3.55;;;1.20;;
39930;SDS011;26635;-35.248;149.138;2022-12-29T04:18:31;3.60;;;1.45;;
39930;SDS011;26635;-35.248;149.138;2022-12-29T04:21:01;7.57;;;1.58;;
39930;SDS011;26635;-35.248;149.138;2022-12-29T04:23:34;4.00;;;1.15;;
39930;SDS011;26635;-35.248;149.138;2022-12-29T04:26:06;2.22;;;1.58;;
39930;SDS011;26635;-35.248;149.138;2022-12-29T04:28:40;3.85;;;1.67;;
39930;SDS011;26635;-35.248;149.138;2022-12-29T04:31:12;6.18;;;1.85;;
39930;SDS011;26635;-35.248;149.138;2022-12-29T04:33:45;2.60;;;1.40;;
39930;SDS011;26635;-35.248;149.138;2022-12-29T04:36:16;2.47;;;1.52;;
39930;SDS011;26635;-35.248;149.138;2022-12-29T04:38:55;3.33;;;1.27;;
39930;SDS011;26635;-35.248;149.138;2022-12-29T04:41:26;3.03;;;1.20;;
39930;SDS011;26635;-35.248;149.138;2022-12-29T04:43:56;3.38;;;1.38;;
39930;SDS011;26635;-35.248;149.138;2022-12-29T04:46:27;2.45;;;1.25;;
39930;SDS011;26635;-35.248;149.138;2022-12-29T04:49:08;2.42;;;1.77;;
39930;SDS011;26635;-35.248;149.138;2022-12-29T04:51:41;3.38;;;1.88;;
39930;SDS011;26635;-35.248;149.138;2022-12-29T04:54:11;3.65;;;2.58;;
39930;SDS011;26635;-35.248;149.138;2022-12-29T04:56:50;3.00;;;1.80;;
39930;SDS011;26635;-35.248;149.138;2022-12-29T04:59:20;2.85;;;1.40;;
39930;SDS011;26635;-35.248;149.138;2022-12-29T05:01:51;2.80;;;1.60;;
39930;SDS011;26635;-35.248;149.138;2022-12-29T05:04:21;5.10;;;2.20;;
39930;SDS011;26635;-35.248;149.138;2022-12-29T05:06:52;3.85;;;2.25;;
39930;SDS011;26635;-35.248;149.138;2022-12-29T05:09:22;4.32;;;1.45;;
39930;SDS011;26635;-35.248;149.138;2022-12-29T05:11:53;4.43;;;2.30;;
39930;SDS011;26635;-35.248;149.138;2022-12-29T05:14:24;6.28;;;2.30;;
39930;SDS011;26635;-35.248;149.138;2022-12-29T05:16:54;7.80;;;2.25;;
39930;SDS011;26635;-35.248;149.138;2022-12-29T05:19:24;4.95;;;1.67;;
39930;SDS011;26635;-35.248;149.138;2022-12-29T05:21:55;3.47;;;2.00;;
39930;SDS011;26635;-35.248;149.138;2022-12-29T05:24:25;5.97;;;2.28;;
39930;SDS011;26635;-35.248;149.138;2022-12-29T05:26:55;3.72;;;1.77;;
39930;SDS011;26635;-35.248;149.138;2022-12-29T05:29:25;5.13;;;1.85;;
39930;SDS011;26635;-35.248;149.138;2022-12-29T05:34:32;2.45;;;1.58;;
39930;SDS011;26635;-35.248;149.138;2022-12-29T05:37:02;3.38;;;1.77;;
39930;SDS011;26635;-35.248;149.138;2022-12-29T05:39:33;4.93;;;2.35;;
39930;SDS011;26635;-35.248;149.138;2022-12-29T05:42:03;5.53;;;2.78;;
39930;SDS011;26635;-35.248;149.138;2022-12-29T05:44:34;4.38;;;2.30;;
39930;SDS011;26635;-35.248;149.138;2022-12-29T05:47:04;7.57;;;2.65;;
39930;SDS011;26635;-35.248;149.138;2022-12-29T05:49:35;3.50;;;1.75;;
39930;SDS011;26635;-35.248;149.138;2022-12-29T05:52:05;4.90;;;2.00;;
39930;SDS011;26635;-35.248;149.138;2022-12-29T05:54:35;4.70;;;1.88;;
39930;SDS011;26635;-35.248;149.138;2022-12-29T05:57:06;9.80;;;3.53;;
39930;SDS011;26635;-35.248;149.138;2022-12-29T05:59:36;8.10;;;2.50;;
39930;SDS011;26635;-35.248;149.138;2022-12-29T06:02:07;6.53;;;2.78;;
39930;SDS011;26635;-35.248;149.138;2022-12-29T06:04:38;3.90;;;2.28;;
39930;SDS011;26635;-35.248;149.138;2022-12-29T06:07:09;8.98;;;2.60;;
39930;SDS011;26635;-35.248;149.138;2022-12-29T06:09:39;5.78;;;2.33;;
39930;SDS011;26635;-35.248;149.138;2022-12-29T06:12:10;4.38;;;2.65;;
39930;SDS011;26635;-35.248;149.138;2022-12-29T06:14:40;5.30;;;2.90;;
39930;SDS011;26635;-35.248;149.138;2022-12-29T06:17:10;7.70;;;2.67;;
39930;SDS011;26635;-35.248;149.138;2022-12-29T06:19:41;3.83;;;2.17;;
39930;SDS011;26635;-35.248;149.138;2022-12-29T06:22:12;5.50;;;2.45;;
39930;SDS011;26635;-35.248;149.138;2022-12-29T06:24:43;6.43;;;2.53;;
39930;SDS011;26635;-35.248;149.138;2022-12-29T06:27:14;3.72;;;2.72;;
39930;SDS011;26635;-35.248;149.138;2022-12-29T06:29:44;5.97;;;2.38;;
39930;SDS011;26635;-35.248;149.138;2022-12-29T06:32:14;5.28;;;2.40;;
39930;SDS011;26635;-35.248;149.138;2022-12-29T06:34:45;4.13;;;2.42;;
39930;SDS011;26635;-35.248;149.138;2022-12-29T06:37:15;6.57;;;3.03;;
39930;SDS011;26635;-35.248;149.138;2022-12-29T06:39:48;4.30;;;2.30;;
39930;SDS011;26635;-35.248;149.138;2022-12-29T06:42:19;4.53;;;2.35;;
39930;SDS011;26635;-35.248;149.138;2022-12-29T06:44:49;6.07;;;2.30;;
39930;SDS011;26635;-35.248;149.138;2022-12-29T06:47:20;4.18;;;2.55;;
39930;SDS011;26635;-35.248;149.138;2022-12-29T06:49:51;7.50;;;2.67;;
39930;SDS011;26635;-35.248;149.138;2022-12-29T06:52:21;6.53;;;2.38;;
39930;SDS011;26635;-35.248;149.138;2022-12-29T06:54:52;4.45;;;2.20;;
39930;SDS011;26635;-35.248;149.138;2022-12-29T06:57:23;6.63;;;3.45;;
39930;SDS011;26635;-35.248;149.138;2022-12-29T06:59:57;6.35;;;2.38;;
39930;SDS011;26635;-35.248;149.138;2022-12-29T07:02:27;6.30;;;2.95;;
39930;SDS011;26635;-35.248;149.138;2022-12-29T07:04:57;6.00;;;2.75;;
39930;SDS011;26635;-35.248;149.138;2022-12-29T07:07:28;4.97;;;2.42;;
39930;SDS011;26635;-35.248;149.138;2022-12-29T07:09:58;4.82;;;2.50;;
39930;SDS011;26635;-35.248;149.138;2022-12-29T07:12:29;7.05;;;2.85;;
39930;SDS011;26635;-35.248;149.138;2022-12-29T07:15:04;7.25;;;2.13;;
39930;SDS011;26635;-35.248;149.138;2022-12-29T07:17:34;6.57;;;3.17;;
39930;SDS011;26635;-35.248;149.138;2022-12-29T07:20:05;6.68;;;2.80;;
39930;SDS011;26635;-35.248;149.138;2022-12-29T07:22:36;4.30;;;2.78;;
39930;SDS011;26635;-35.248;149.138;2022-12-29T07:25:07;6.88;;;3.20;;
39930;SDS011;26635;-35.248;149.138;2022-12-29T07:27:37;5.03;;;2.88;;
39930;SDS011;26635;-35.248;149.138;2022-12-29T07:30:08;7.00;;;3.05;;
39930;SDS011;26635;-35.248;149.138;2022-12-29T07:32:40;7.22;;;2.65;;
39930;SDS011;26635;-35.248;149.138;2022-12-29T07:35:10;5.03;;;2.05;;
39930;SDS011;26635;-35.248;149.138;2022-12-29T07:37:41;7.10;;;3.22;;
39930;SDS011;26635;-35.248;149.138;2022-12-29T07:40:11;6.03;;;3.38;;
39930;SDS011;26635;-35.248;149.138;2022-12-29T07:42:43;8.25;;;4.38;;
39930;SDS011;26635;-35.248;149.138;2022-12-29T07:45:13;5.45;;;2.40;;
39930;SDS011;26635;-35.248;149.138;2022-12-29T07:47:46;5.35;;;2.22;;
39930;SDS011;26635;-35.248;149.138;2022-12-29T07:50:18;5.20;;;2.80;;
39930;SDS011;26635;-35.248;149.138;2022-12-29T07:52:48;6.28;;;3.33;;
39930;SDS011;26635;-35.248;149.138;2022-12-29T07:55:18;10.25;;;5.80;;
39930;SDS011;26635;-35.248;149.138;2022-12-29T07:57:49;7.32;;;3.20;;
39930;SDS011;26635;-35.248;149.138;2022-12-29T08:00:27;8.32;;;3.38;;
39930;SDS011;26635;-35.248;149.138;2022-12-29T08:02:57;6.60;;;2.53;;
39930;SDS011;26635;-35.248;149.138;2022-12-29T08:05:28;4.60;;;1.80;;
39930;SDS011;26635;-35.248;149.138;2022-12-29T08:08:00;5.15;;;1.80;;
39930;SDS011;26635;-35.248;149.138;2022-12-29T08:10:31;6.13;;;2.03;;
39930;SDS011;26635;-35.248;149.138;2022-12-29T08:13:02;5.28;;;1.80;;
39930;SDS011;26635;-35.248;149.138;2022-12-29T08:15:33;7.45;;;2.55;;
39930;SDS011;26635;-35.248;149.138;2022-12-29T08:18:05;7.50;;;2.35;;
39930;SDS011;26635;-35.248;149.138;2022-12-29T08:20:35;4.13;;;1.98;;
39930;SDS011;26635;-35.248;149.138;2022-12-29T08:23:06;12.38;;;3.90;;
39930;SDS011;26635;-35.248;149.138;2022-12-29T08:25:38;5.95;;;2.42;;
39930;SDS011;26635;-35.248;149.138;2022-12-29T08:28:10;6.32;;;2.58;;
39930;SDS011;26635;-35.248;149.138;2022-12-29T08:30:41;5.22;;;2.47;;
39930;SDS011;26635;-35.248;149.138;2022-12-29T08:33:12;6.30;;;2.97;;
39930;SDS011;26635;-35.248;149.138;2022-12-29T08:35:43;9.13;;;3.15;;
39930;SDS011;26635;-35.248;149.138;2022-12-29T08:38:18;6.55;;;1.73;;
39930;SDS011;26635;-35.248;149.138;2022-12-29T08:40:53;4.95;;;2.35;;
39930;SDS011;26635;-35.248;149.138;2022-12-29T08:43:25;3.13;;;1.27;;
39930;SDS011;26635;-35.248;149.138;2022-12-29T08:45:57;3.70;;;1.92;;
39930;SDS011;26635;-35.248;149.138;2022-12-29T08:48:29;3.60;;;1.25;;
39930;SDS011;26635;-35.248;149.138;2022-12-29T08:50:59;3.55;;;1.35;;
39930;SDS011;26635;-35.248;149.138;2022-12-29T08:53:30;2.65;;;1.35;;
39930;SDS011;26635;-35.248;149.138;2022-12-29T08:56:01;3.35;;;1.02;;
39930;SDS011;26635;-35.248;149.138;2022-12-29T08:58:32;3.25;;;0.82;;
39930;SDS011;26635;-35.248;149.138;2022-12-29T09:01:03;3.33;;;0.73;;
39930;SDS011;26635;-35.248;149.138;2022-12-29T09:03:33;4.32;;;0.73;;
39930;SDS011;26635;-35.248;149.138;2022-12-29T09:06:24;3.58;;;1.00;;
39930;SDS011;26635;-35.248;149.138;2022-12-29T09:11:31;3.70;;;0.90;;
39930;SDS011;26635;-35.248;149.138;2022-12-29T09:14:02;1.80;;;0.80;;
39930;SDS011;26635;-35.248;149.138;2022-12-29T09:16:33;3.95;;;0.93;;
39930;SDS011;26635;-35.248;149.138;2022-12-29T09:19:04;1.13;;;0.55;;
39930;SDS011;26635;-35.248;149.138;2022-12-29T09:21:35;1.70;;;0.70;;
39930;SDS011;26635;-35.248;149.138;2022-12-29T09:24:07;2.05;;;0.70;;
39930;SDS011;26635;-35.248;149.138;2022-12-29T09:26:37;3.13;;;1.13;;
39930;SDS011;26635;-35.248;149.138;2022-12-29T09:29:13;3.13;;;0.93;;
39930;SDS011;26635;-35.248;149.138;2022-12-29T09:31:43;1.95;;;0.73;;
39930;SDS011;26635;-35.248;149.138;2022-12-29T09:34:13;1.67;;;0.70;;
39930;SDS011;26635;-35.248;149.138;2022-12-29T09:36:44;1.38;;;0.50;;
39930;SDS011;26635;-35.248;149.138;2022-12-29T09:39:14;2.08;;;0.93;;
39930;SDS011;26635;-35.248;149.138;2022-12-29T09:47:33;1.42;;;0.57;;
39930;SDS011;26635;-35.248;149.138;2022-12-29T09:50:27;1.52;;;0.50;;
39930;SDS011;26635;-35.248;149.138;2022-12-29T09:55:54;1.42;;;0.60;;
39930;SDS011;26635;-35.248;149.138;2022-12-29T09:58:34;1.42;;;0.47;;
39930;SDS011;26635;-35.248;149.138;2022-12-29T10:01:38;2.65;;;0.55;;
39930;SDS011;26635;-35.248;149.138;2022-12-29T10:04:33;1.25;;;0.40;;
39930;SDS011;26635;-35.248;149.138;2022-12-29T10:07:12;2.83;;;0.95;;
39930;SDS011;26635;-35.248;149.138;2022-12-29T10:13:01;2.47;;;0.60;;
39930;SDS011;26635;-35.248;149.138;2022-12-29T10:15:46;2.70;;;0.60;;
39930;SDS011;26635;-35.248;149.138;2022-12-29T10:23:50;1.23;;;0.73;;
39930;SDS011;26635;-35.248;149.138;2022-12-29T10:26:23;3.08;;;1.23;;
39930;SDS011;26635;-35.248;149.138;2022-12-29T10:29:05;1.23;;;0.90;;
39930;SDS011;26635;-35.248;149.138;2022-12-29T10:31:44;1.13;;;0.80;;
39930;SDS011;26635;-35.248;149.138;2022-12-29T10:37:27;1.63;;;0.57;;
39930;SDS011;26635;-35.248;149.138;2022-12-29T10:40:01;1.38;;;0.52;;
39930;SDS011;26635;-35.248;149.138;2022-12-29T10:42:45;1.23;;;0.60;;
39930;SDS011;26635;-35.248;149.138;2022-12-29T10:45:19;0.90;;;0.50;;
39930;SDS011;26635;-35.248;149.138;2022-12-29T10:47:58;2.38;;;0.50;;
39930;SDS011;26635;-35.248;149.138;2022-12-29T10:50:39;3.10;;;0.70;;
39930;SDS011;26635;-35.248;149.138;2022-12-29T10:53:15;1.42;;;0.60;;
39930;SDS011;26635;-35.248;149.138;2022-12-29T10:55:50;3.22;;;1.10;;
39930;SDS011;26635;-35.248;149.138;2022-12-29T10:58:22;1.73;;;0.93;;
39930;SDS011;26635;-35.248;149.138;2022-12-29T11:00:54;2.17;;;0.77;;
39930;SDS011;26635;-35.248;149.138;2022-12-29T11:03:36;1.83;;;0.93;;
39930;SDS011;26635;-35.248;149.138;2022-12-29T11:06:21;3.53;;;1.42;;
39930;SDS011;26635;-35.248;149.138;2022-12-29T11:08:56;2.90;;;0.85;;
39930;SDS011;26635;-35.248;149.138;2022-12-29T11:11:37;1.63;;;0.70;;
39930;SDS011;26635;-35.248;149.138;2022-12-29T11:14:16;3.22;;;0.80;;
39930;SDS011;26635;-35.248;149.138;2022-12-29T11:16:59;1.65;;;0.70;;
39930;SDS011;26635;-35.248;149.138;2022-12-29T11:19:33;1.65;;;0.90;;
39930;SDS011;26635;-35.248;149.138;2022-12-29T11:22:24;1.55;;;0.70;;
39930;SDS011;26635;-35.248;149.138;2022-12-29T11:25:05;1.50;;;0.77;;
39930;SDS011;26635;-35.248;149.138;2022-12-29T11:27:42;2.35;;;0.82;;
39930;SDS011;26635;-35.248;149.138;2022-12-29T11:30:27;2.60;;;1.00;;
39930;SDS011;26635;-35.248;149.138;2022-12-29T11:33:02;2.92;;;0.82;;
39930;SDS011;26635;-35.248;149.138;2022-12-29T11:35:36;2.65;;;1.10;;
39930;SDS011;26635;-35.248;149.138;2022-12-29T11:38:21;5.88;;;1.48;;
39930;SDS011;26635;-35.248;149.138;2022-12-29T11:41:18;1.45;;;0.63;;
39930;SDS011;26635;-35.248;149.138;2022-12-29T11:43:55;1.65;;;0.70;;
39930;SDS011;26635;-35.248;149.138;2022-12-29T11:46:33;1.42;;;0.88;;
39930;SDS011;26635;-35.248;149.138;2022-12-29T11:49:10;2.53;;;0.93;;
39930;SDS011;26635;-35.248;149.138;2022-12-29T11:51:48;1.20;;;0.50;;
39930;SDS011;26635;-35.248;149.138;2022-12-29T11:54:25;2.38;;;0.60;;
39930;SDS011;26635;-35.248;149.138;2022-12-29T11:57:12;2.15;;;0.80;;
39930;SDS011;26635;-35.248;149.138;2022-12-29T11:59:51;2.28;;;0.70;;
39930;SDS011;26635;-35.248;149.138;2022-12-29T12:05:19;0.88;;;0.73;;
39930;SDS011;26635;-35.248;149.138;2022-12-29T12:16:32;0.77;;;0.40;;
39930;SDS011;26635;-35.248;149.138;2022-12-29T12:22:10;2.00;;;0.80;;
39930;SDS011;26635;-35.248;149.138;2022-12-29T12:27:30;2.80;;;1.08;;
39930;SDS011;26635;-35.248;149.138;2022-12-29T12:30:22;1.08;;;0.43;;
39930;SDS011;26635;-35.248;149.138;2022-12-29T12:35:45;1.23;;;0.52;;
39930;SDS011;26635;-35.248;149.138;2022-12-29T12:41:46;1.33;;;0.70;;
39930;SDS011;26635;-35.248;149.138;2022-12-29T12:44:35;0.95;;;0.50;;
39930;SDS011;26635;-35.248;149.138;2022-12-29T13:17:38;1.05;;;0.50;;
39930;SDS011;26635;-35.248;149.138;2022-12-29T13:20:41;0.82;;;0.40;;
39930;SDS011;26635;-35.248;149.138;2022-12-29T13:23:27;2.67;;;0.82;;
39930;SDS011;26635;-35.248;149.138;2022-12-29T13:26:14;3.40;;;0.70;;
39930;SDS011;26635;-35.248;149.138;2022-12-29T13:29:00;1.20;;;0.80;;
39930;SDS011;26635;-35.248;149.138;2022-12-29T13:37:11;1.40;;;0.80;;
39930;SDS011;26635;-35.248;149.138;2022-12-29T13:39:50;2.72;;;1.30;;
39930;SDS011;26635;-35.248;149.138;2022-12-29T13:42:27;1.02;;;0.60;;
39930;SDS011;26635;-35.248;149.138;2022-12-29T13:45:03;1.75;;;0.63;;
39930;SDS011;26635;-35.248;149.138;2022-12-29T13:50:24;3.45;;;0.90;;
39930;SDS011;26635;-35.248;149.138;2022-12-29T13:55:47;2.72;;;0.80;;
39930;SDS011;26635;-35.248;149.138;2022-12-29T14:04:09;1.60;;;1.00;;
39930;SDS011;26635;-35.248;149.138;2022-12-29T14:07:04;1.15;;;0.80;;
39930;SDS011;26635;-35.248;149.138;2022-12-29T14:12:28;1.73;;;1.10;;
39930;SDS011;26635;-35.248;149.138;2022-12-29T14:17:41;3.67;;;1.00;;
39930;SDS011;26635;-35.248;149.138;2022-12-29T14:20:22;3.08;;;1.00;;
39930;SDS011;26635;-35.248;149.138;2022-12-29T14:22:57;1.80;;;0.90;;
39930;SDS011;26635;-35.248;149.138;2022-12-29T14:28:25;2.22;;;1.20;;
39930;SDS011;26635;-35.248;149.138;2022-12-29T14:31:03;2.38;;;1.10;;
39930;SDS011;26635;-35.248;149.138;2022-12-29T14:33:34;5.25;;;1.15;;
39930;SDS011;26635;-35.248;149.138;2022-12-29T14:36:21;6.78;;;1.75;;
39930;SDS011;26635;-35.248;149.138;2022-12-29T14:39:03;2.55;;;1.10;;
39930;SDS011;26635;-35.248;149.138;2022-12-29T14:42:00;2.38;;;1.10;;
39930;SDS011;26635;-35.248;149.138;2022-12-29T14:44:51;2.83;;;1.10;;
39930;SDS011;26635;-35.248;149.138;2022-12-29T14:50:07;4.95;;;1.10;;
39930;SDS011;26635;-35.248;149.138;2022-12-29T14:52:57;3.47;;;0.90;;
39930;SDS011;26635;-35.248;149.138;2022-12-29T14:55:46;2.38;;;1.27;;
39930;SDS011;26635;-35.248;149.138;2022-12-29T14:58:26;4.03;;;1.10;;
39930;SDS011;26635;-35.248;149.138;2022-12-29T15:01:01;2.30;;;1.58;;
39930;SDS011;26635;-35.248;149.138;2022-12-29T15:03:32;4.00;;;1.40;;
39930;SDS011;26635;-35.248;149.138;2022-12-29T15:06:13;2.72;;;1.30;;
39930;SDS011;26635;-35.248;149.138;2022-12-29T15:11:42;3.00;;;1.70;;
39930;SDS011;26635;-35.248;149.138;2022-12-29T15:14:37;3.10;;;1.27;;
39930;SDS011;26635;-35.248;149.138;2022-12-29T15:17:27;2.90;;;1.40;;
39930;SDS011;26635;-35.248;149.138;2022-12-29T15:20:02;2.03;;;1.15;;
39930;SDS011;26635;-35.248;149.138;2022-12-29T15:22:58;1.58;;;1.20;;
39930;SDS011;26635;-35.248;149.138;2022-12-29T15:25:32;3.22;;;1.15;;
39930;SDS011;26635;-35.248;149.138;2022-12-29T15:28:03;1.85;;;1.48;;
39930;SDS011;26635;-35.248;149.138;2022-12-29T15:30:36;4.95;;;1.13;;
39930;SDS011;26635;-35.248;149.138;2022-12-29T15:33:21;1.70;;;1.10;;
39930;SDS011;26635;-35.248;149.138;2022-12-29T15:35:56;2.40;;;1.13;;
39930;SDS011;26635;-35.248;149.138;2022-12-29T15:38:34;2.55;;;0.98;;
39930;SDS011;26635;-35.248;149.138;2022-12-29T15:44:38;1.95;;;1.17;;
39930;SDS011;26635;-35.248;149.138;2022-12-29T15:49:48;3.80;;;1.05;;
39930;SDS011;26635;-35.248;149.138;2022-12-29T15:52:24;2.00;;;0.80;;
39930;SDS011;26635;-35.248;149.138;2022-12-29T15:54:54;10.23;;;1.40;;
39930;SDS011;26635;-35.248;149.138;2022-12-29T15:57:29;1.52;;;0.90;;
39930;SDS011;26635;-35.248;149.138;2022-12-29T16:00:20;3.65;;;1.20;;
39930;SDS011;26635;-35.248;149.138;2022-12-29T16:02:57;2.75;;;1.00;;
39930;SDS011;26635;-35.248;149.138;2022-12-29T16:05:37;3.35;;;1.67;;
39930;SDS011;26635;-35.248;149.138;2022-12-29T16:08:22;1.92;;;1.00;;
39930;SDS011;26635;-35.248;149.138;2022-12-29T16:11:01;2.50;;;0.80;;
39930;SDS011;26635;-35.248;149.138;2022-12-29T16:13:40;3.05;;;1.20;;
39930;SDS011;26635;-35.248;149.138;2022-12-29T16:19:24;1.30;;;0.70;;
39930;SDS011;26635;-35.248;149.138;2022-12-29T16:22:17;2.45;;;0.90;;
39930;SDS011;26635;-35.248;149.138;2022-12-29T16:25:02;1.70;;;0.80;;
39930;SDS011;26635;-35.248;149.138;2022-12-29T16:27:45;1.30;;;0.73;;
39930;SDS011;26635;-35.248;149.138;2022-12-29T16:30:18;2.40;;;0.68;;
39930;SDS011;26635;-35.248;149.138;2022-12-29T16:33:00;1.63;;;0.90;;
39930;SDS011;26635;-35.248;149.138;2022-12-29T16:35:45;3.40;;;0.90;;
39930;SDS011;26635;-35.248;149.138;2022-12-29T16:41:09;3.78;;;1.00;;
39930;SDS011;26635;-35.248;149.138;2022-12-29T16:44:25;1.42;;;0.77;;
39930;SDS011;26635;-35.248;149.138;2022-12-29T16:49:34;1.85;;;1.10;;
39930;SDS011;26635;-35.248;149.138;2022-12-29T16:52:29;1.88;;;0.90;;
39930;SDS011;26635;-35.248;149.138;2022-12-29T16:55:02;2.03;;;0.80;;
39930;SDS011;26635;-35.248;149.138;2022-12-29T16:57:34;1.35;;;0.90;;
39930;SDS011;26635;-35.248;149.138;2022-12-29T17:00:07;3.25;;;0.95;;
39930;SDS011;26635;-35.248;149.138;2022-12-29T17:02:57;1.30;;;0.70;;
39930;SDS011;26635;-35.248;149.138;2022-12-29T17:05:30;1.08;;;0.63;;
39930;SDS011;26635;-35.248;149.138;2022-12-29T17:08:01;2.75;;;0.60;;
39930;SDS011;26635;-35.248;149.138;2022-12-29T17:10:33;3.28;;;0.60;;
39930;SDS011;26635;-35.248;149.138;2022-12-29T17:13:21;2.17;;;0.52;;
39930;SDS011;26635;-35.248;149.138;2022-12-29T17:15:52;3.28;;;0.73;;
39930;SDS011;26635;-35.248;149.138;2022-12-29T17:18:23;1.50;;;0.60;;
39930;SDS011;26635;-35.248;149.138;2022-12-29T17:20:54;1.55;;;0.50;;
39930;SDS011;26635;-35.248;149.138;2022-12-29T17:23:24;1.27;;;0.60;;
39930;SDS011;26635;-35.248;149.138;2022-12-29T17:25:55;2.53;;;0.40;;
39930;SDS011;26635;-35.248;149.138;2022-12-29T17:28:26;1.45;;;0.40;;
39930;SDS011;26635;-35.248;149.138;2022-12-29T17:31:03;0.73;;;0.35;;
39930;SDS011;26635;-35.248;149.138;2022-12-29T17:33:36;1.85;;;0.40;;
39930;SDS011;26635;-35.248;149.138;2022-12-29T17:36:10;0.80;;;0.40;;
39930;SDS011;26635;-35.248;149.138;2022-12-29T17:38:41;4.43;;;0.68;;
39930;SDS011;26635;-35.248;149.138;2022-12-29T17:41:13;1.30;;;0.50;;
39930;SDS011;26635;-35.248;149.138;2022-12-29T17:43:44;2.10;;;0.60;;